createdAt,value
2018-03-03T00:00:33.178Z,92.90
2018-03-03T00:03:00.711Z,93.10
2018-03-03T00:05:28.217Z,93.20
2018-03-03T00:07:56.570Z,93.60
2018-03-03T00:10:24.095Z,93.60
2018-03-03T00:12:51.606Z,93.80
2018-03-03T00:15:19.169Z,93.70
2018-03-03T00:17:47.441Z,94.10
2018-03-03T00:20:14.973Z,94.00
2018-03-03T00:22:42.478Z,94.20
2018-03-03T00:25:10.766Z,93.60
2018-03-03T00:27:38.271Z,93.60
2018-03-03T00:30:05.774Z,93.50
2018-03-03T00:32:33.298Z,93.60
2018-03-03T00:35:00.807Z,93.70
2018-03-03T00:37:28.338Z,93.70
2018-03-03T00:39:56.606Z,93.80
2018-03-03T00:42:24.899Z,94.60
2018-03-03T00:44:53.171Z,94.20
2018-03-03T00:47:21.462Z,94.00
2018-03-03T00:49:48.962Z,93.90
2018-03-03T00:52:16.466Z,93.60
2018-03-03T00:54:44.754Z,93.70
2018-03-03T00:57:12.258Z,93.70
2018-03-03T00:59:39.790Z,93.90
2018-03-03T01:02:07.294Z,94.20
2018-03-03T01:04:35.610Z,94.50
2018-03-03T01:07:03.114Z,94.40
2018-03-03T01:09:30.647Z,94.50
2018-03-03T01:11:58.150Z,94.60
2018-03-03T01:14:25.709Z,94.60
2018-03-03T01:16:53.193Z,94.70
2018-03-03T01:19:20.722Z,94.70
2018-03-03T01:21:48.228Z,94.80
2018-03-03T01:24:15.738Z,94.70
2018-03-03T01:26:43.266Z,94.60
2018-03-03T01:29:10.786Z,94.70
2018-03-03T01:31:38.318Z,94.60
2018-03-03T01:34:06.589Z,94.50
2018-03-03T01:36:34.117Z,94.50
2018-03-03T01:39:01.639Z,94.50
2018-03-03T01:41:29.166Z,94.70
2018-03-03T01:43:56.675Z,94.70
2018-03-03T01:46:24.180Z,94.60
2018-03-03T01:48:51.711Z,94.90
2018-03-03T01:51:30.937Z,94.90
2018-03-03T01:53:58.463Z,94.90
2018-03-03T01:56:25.971Z,95.00
2018-03-03T01:58:53.502Z,95.30
2018-03-03T02:01:21.005Z,95.40
2018-03-03T02:03:48.511Z,95.40
2018-03-03T02:06:16.046Z,95.40
2018-03-03T02:08:44.318Z,95.60
2018-03-03T02:11:12.615Z,95.80
2018-03-03T02:13:40.126Z,95.70
2018-03-03T02:16:07.659Z,95.70
2018-03-03T02:18:35.170Z,95.70
2018-03-03T02:21:03.437Z,95.90
2018-03-03T02:23:30.967Z,95.90
2018-03-03T02:25:58.486Z,95.80
2018-03-03T02:28:26.018Z,95.80
2018-03-03T02:30:54.290Z,95.90
2018-03-03T02:33:21.824Z,95.90
2018-03-03T02:35:49.331Z,96.50
2018-03-03T02:38:16.834Z,96.00
2018-03-03T02:40:44.359Z,96.00
2018-03-03T02:43:11.872Z,96.00
2018-03-03T02:45:39.403Z,95.80
2018-03-03T02:48:06.919Z,95.80
2018-03-03T02:50:35.221Z,95.90
2018-03-03T02:53:02.726Z,95.80
2018-03-03T02:55:30.230Z,95.60
2018-03-03T02:57:57.753Z,95.60
2018-03-03T03:00:25.257Z,95.40
2018-03-03T03:02:52.778Z,95.60
2018-03-03T03:05:21.046Z,95.40
2018-03-03T03:07:49.346Z,95.90
2018-03-03T03:10:17.624Z,95.70
2018-03-03T03:12:45.155Z,95.70
2018-03-03T03:15:13.427Z,95.80
2018-03-03T03:17:41.710Z,95.60
2018-03-03T03:20:09.233Z,95.60
2018-03-03T03:22:36.735Z,95.70
2018-03-03T03:25:05.022Z,96.10
2018-03-03T03:27:33.296Z,95.80
2018-03-03T03:30:01.595Z,95.70
2018-03-03T03:32:29.098Z,95.70
2018-03-03T03:34:56.597Z,95.90
2018-03-03T03:37:24.126Z,95.90
2018-03-03T03:39:51.630Z,96.00
2018-03-03T03:42:19.154Z,95.90
2018-03-03T03:44:47.423Z,96.00
2018-03-03T03:47:14.950Z,96.00
2018-03-03T03:49:42.458Z,96.00
2018-03-03T03:52:10.750Z,95.90
2018-03-03T03:54:38.254Z,95.90
2018-03-03T03:57:05.750Z,95.90
2018-03-03T03:59:34.038Z,95.70
2018-03-03T04:02:01.542Z,95.70
2018-03-03T04:04:29.072Z,95.70
2018-03-03T04:06:56.575Z,95.70
2018-03-03T04:09:24.110Z,95.80
2018-03-03T04:11:51.610Z,95.70
2018-03-03T04:14:19.883Z,95.90
2018-03-03T04:16:47.406Z,95.50
2018-03-03T04:19:14.906Z,95.90
2018-03-03T04:21:43.198Z,95.60
2018-03-03T04:24:11.462Z,95.50
2018-03-03T04:26:39.762Z,95.60
2018-03-03T04:29:07.268Z,95.60
2018-03-03T04:31:34.802Z,95.60
2018-03-03T04:34:02.314Z,95.40
2018-03-03T04:36:30.582Z,95.60
2018-03-03T04:38:58.879Z,95.70
2018-03-03T04:41:27.153Z,95.50
2018-03-03T04:43:55.442Z,95.40
2018-03-03T04:46:22.938Z,95.80
2018-03-03T04:48:50.468Z,95.30
2018-03-03T04:51:17.974Z,95.30
2018-03-03T04:53:45.502Z,95.30
2018-03-03T04:56:13.048Z,95.40
2018-03-03T04:58:41.594Z,95.30
2018-03-03T05:01:11.366Z,95.50
2018-03-03T05:06:50.927Z,95.40
2018-03-03T05:09:18.459Z,95.40
2018-03-03T05:11:45.958Z,95.30
2018-03-03T05:17:26.842Z,95.30
2018-03-03T05:23:11.518Z,95.30
2018-03-03T05:25:44.730Z,95.40
2018-03-03T05:28:20.786Z,95.30
2018-03-03T05:30:54.106Z,95.30
2018-03-03T05:33:28.126Z,95.40
2018-03-03T05:36:02.016Z,95.40
2018-03-03T05:38:32.269Z,95.40
2018-03-03T05:41:05.533Z,95.40
2018-03-03T05:46:43.414Z,95.40
2018-03-03T05:49:28.578Z,95.30
2018-03-03T05:52:01.699Z,95.50
2018-03-03T05:54:34.977Z,95.40
2018-03-03T05:57:08.293Z,95.50
2018-03-03T05:59:41.554Z,95.40
2018-03-03T06:05:12.962Z,95.20
2018-03-03T06:07:46.217Z,95.20
2018-03-03T06:10:13.655Z,95.20
2018-03-03T06:12:41.154Z,95.00
2018-03-03T06:15:08.679Z,94.80
2018-03-03T06:17:36.182Z,94.80
2018-03-03T06:20:03.708Z,94.90
2018-03-03T06:22:31.211Z,94.90
2018-03-03T06:24:58.738Z,94.90
2018-03-03T06:27:26.238Z,95.00
2018-03-03T06:29:54.508Z,95.10
2018-03-03T06:32:22.796Z,95.10
2018-03-03T06:34:51.062Z,95.00
2018-03-03T06:37:19.354Z,95.10
2018-03-03T06:39:47.618Z,95.00
2018-03-03T06:42:15.906Z,94.70
2018-03-03T06:44:44.170Z,94.80
2018-03-03T06:47:12.437Z,94.80
2018-03-03T06:49:40.726Z,94.90
2018-03-03T06:52:08.990Z,94.80
2018-03-03T06:54:36.518Z,94.80
2018-03-03T06:57:04.014Z,94.70
2018-03-03T06:59:32.307Z,94.60
2018-03-03T07:01:59.806Z,94.60
2018-03-03T07:04:27.325Z,94.60
2018-03-03T07:06:54.831Z,94.50
2018-03-03T07:09:22.357Z,94.50
2018-03-03T07:11:49.853Z,94.50
2018-03-03T07:14:17.353Z,94.40
2018-03-03T07:16:45.645Z,94.40
2018-03-03T07:19:13.141Z,94.40
2018-03-03T07:21:40.664Z,94.30
2018-03-03T07:24:08.170Z,94.20
2018-03-03T07:26:35.690Z,94.30
2018-03-03T07:29:03.192Z,94.20
2018-03-03T07:31:30.720Z,94.20
2018-03-03T07:33:58.222Z,94.30
2018-03-03T07:36:25.746Z,94.20
2018-03-03T07:38:53.246Z,94.30
2018-03-03T07:41:21.515Z,94.30
2018-03-03T07:43:49.805Z,94.20
2018-03-03T07:46:18.074Z,94.30
2018-03-03T07:48:46.369Z,94.10
2018-03-03T07:51:13.881Z,94.10
2018-03-03T07:53:41.401Z,94.00
2018-03-03T07:56:08.898Z,94.00
2018-03-03T07:58:48.374Z,93.90
2018-03-03T08:01:16.640Z,93.80
2018-03-03T08:03:44.914Z,93.70
2018-03-03T08:06:13.202Z,94.00
2018-03-03T08:08:41.470Z,93.70
2018-03-03T08:11:09.759Z,93.70
2018-03-03T08:13:38.022Z,93.50
2018-03-03T08:16:06.314Z,93.90
2018-03-03T08:18:33.814Z,93.50
2018-03-03T08:21:01.315Z,93.50
2018-03-03T08:23:29.613Z,93.10
2018-03-03T08:25:57.119Z,93.10
2018-03-03T08:28:24.642Z,93.20
2018-03-03T08:30:52.146Z,93.20
2018-03-03T08:33:19.671Z,92.90
2018-03-03T08:35:47.176Z,93.10
2018-03-03T08:38:14.678Z,92.60
2018-03-03T08:40:42.198Z,92.50
2018-03-03T08:43:10.471Z,92.70
2018-03-03T08:45:38.773Z,92.70
2018-03-03T08:48:06.278Z,92.40
2018-03-03T08:50:33.795Z,92.20
2018-03-03T08:53:01.290Z,92.20
2018-03-03T08:55:28.810Z,92.20
2018-03-03T08:57:56.310Z,92.00
2018-03-03T09:00:23.801Z,91.90
2018-03-03T09:02:52.086Z,92.20
2018-03-03T09:05:20.350Z,91.70
2018-03-03T09:07:47.870Z,91.60
2018-03-03T09:10:15.366Z,91.60
2018-03-03T09:12:42.886Z,91.60
2018-03-03T09:15:10.382Z,91.70
2018-03-03T09:17:37.901Z,91.90
2018-03-03T09:20:05.398Z,92.00
2018-03-03T09:22:32.906Z,91.20
2018-03-03T09:25:00.427Z,91.20
2018-03-03T09:27:28.690Z,91.00
2018-03-03T09:29:56.215Z,91.00
2018-03-03T09:32:23.714Z,91.00
2018-03-03T09:34:51.998Z,90.80
2018-03-03T09:37:20.263Z,90.60
2018-03-03T09:39:48.570Z,90.70
2018-03-03T09:42:16.065Z,90.70
2018-03-03T09:44:43.563Z,90.50
2018-03-03T09:47:11.851Z,90.60
2018-03-03T09:49:40.119Z,90.50
2018-03-03T09:52:08.406Z,90.70
2018-03-03T09:54:35.922Z,90.60
2018-03-03T09:57:03.450Z,90.60
2018-03-03T09:59:30.972Z,90.50
2018-03-03T10:02:06.292Z,90.50
2018-03-03T10:04:26.787Z,90.50
2018-03-03T10:06:54.287Z,90.30
2018-03-03T10:09:21.807Z,90.30
2018-03-03T10:11:49.307Z,90.10
2018-03-03T10:14:16.827Z,90.20
2018-03-03T10:16:44.323Z,89.60
2018-03-03T10:19:11.842Z,89.60
2018-03-03T10:21:39.338Z,89.30
2018-03-03T10:24:06.866Z,89.10
2018-03-03T10:26:35.130Z,89.80
2018-03-03T10:29:02.651Z,89.80
2018-03-03T10:31:30.150Z,89.40
2018-03-03T10:33:57.646Z,88.90
2018-03-03T10:36:25.167Z,88.60
2018-03-03T10:38:52.718Z,87.80
2018-03-03T10:41:20.242Z,87.50
2018-03-03T10:43:47.738Z,87.00
2018-03-03T10:46:15.262Z,86.80
2018-03-03T10:48:42.758Z,86.50
2018-03-03T10:51:10.280Z,85.90
2018-03-03T10:53:37.778Z,85.30
2018-03-03T10:56:05.299Z,86.40
2018-03-03T10:58:32.809Z,85.10
2018-03-03T11:01:01.087Z,84.10
2018-03-03T11:03:29.376Z,83.60
2018-03-03T11:05:56.882Z,83.50
2018-03-03T11:08:24.406Z,82.80
2018-03-03T11:10:51.915Z,82.00
2018-03-03T11:13:19.435Z,82.60
2018-03-03T11:15:46.940Z,81.80
2018-03-03T11:18:14.475Z,82.80
2018-03-03T11:20:41.983Z,83.10
2018-03-03T11:23:10.248Z,84.20
2018-03-03T11:25:38.541Z,84.50
2018-03-03T11:28:06.043Z,84.50
2018-03-03T11:30:33.565Z,85.50
2018-03-03T11:33:01.067Z,85.80
2018-03-03T11:35:28.599Z,85.40
2018-03-03T11:37:56.098Z,85.50
2018-03-03T11:40:23.622Z,85.80
2018-03-03T11:42:51.126Z,85.20
2018-03-03T11:45:19.394Z,85.40
2018-03-03T11:47:46.918Z,85.40
2018-03-03T11:50:14.416Z,85.20
2018-03-03T11:52:42.706Z,84.90
2018-03-03T11:55:10.970Z,85.70
2018-03-03T11:57:38.493Z,85.70
2018-03-03T12:00:05.994Z,85.60
2018-03-03T12:02:34.267Z,84.70
2018-03-03T12:05:01.791Z,84.70
2018-03-03T12:07:29.290Z,84.80
2018-03-03T12:09:57.578Z,83.70
2018-03-03T12:12:25.843Z,84.10
2018-03-03T12:14:54.129Z,83.50
2018-03-03T12:17:22.386Z,83.40
2018-03-03T12:19:49.895Z,83.40
2018-03-03T12:22:17.418Z,83.40
2018-03-03T12:24:45.683Z,83.40
2018-03-03T12:27:13.218Z,83.40
2018-03-03T12:29:40.722Z,83.20
2018-03-03T12:32:08.364Z,82.60
2018-03-03T12:34:36.631Z,81.20
2018-03-03T12:37:04.158Z,81.20
2018-03-03T12:39:31.663Z,80.10
2018-03-03T12:41:59.940Z,80.30
2018-03-03T12:44:27.473Z,80.20
2018-03-03T12:46:54.974Z,79.60
2018-03-03T12:49:22.492Z,80.00
2018-03-03T12:51:49.990Z,79.70
2018-03-03T12:54:17.510Z,80.20
2018-03-03T12:56:45.016Z,80.40
2018-03-03T12:59:12.538Z,81.00
2018-03-03T13:01:40.030Z,81.80
2018-03-03T13:04:07.531Z,83.00
2018-03-03T13:06:35.055Z,82.80
2018-03-03T13:09:02.554Z,83.40
2018-03-03T13:11:30.074Z,82.10
2018-03-03T13:13:57.570Z,82.20
2018-03-03T13:16:25.094Z,81.50
2018-03-03T13:18:52.589Z,81.30
2018-03-03T13:21:20.114Z,80.90
2018-03-03T13:23:47.615Z,80.00
2018-03-03T13:26:15.892Z,82.40
2018-03-03T13:28:44.182Z,81.50
2018-03-03T13:31:12.450Z,79.70
2018-03-03T13:33:39.973Z,79.60
2018-03-03T13:36:07.474Z,78.80
2018-03-03T13:38:35.762Z,77.80
2018-03-03T13:41:04.042Z,80.20
2018-03-03T13:43:31.565Z,80.20
2018-03-03T13:45:59.062Z,78.90
2018-03-03T13:48:26.562Z,78.40
2018-03-03T13:50:54.082Z,78.70
2018-03-03T13:53:21.582Z,79.50
2018-03-03T13:55:49.103Z,78.50
2018-03-03T13:58:16.609Z,78.50
2018-03-03T14:00:44.135Z,77.90
2018-03-03T14:03:11.635Z,78.70
2018-03-03T14:05:39.162Z,80.00
2018-03-03T14:08:06.657Z,80.60
2018-03-03T14:10:34.164Z,80.70
2018-03-03T14:13:01.690Z,80.50
2018-03-03T14:15:29.954Z,80.50
2018-03-03T14:17:57.482Z,80.50
2018-03-03T14:20:24.979Z,79.70
2018-03-03T14:22:53.272Z,79.90
2018-03-03T14:25:21.539Z,79.30
2018-03-03T14:27:49.826Z,80.40
2018-03-03T14:30:18.091Z,81.80
2018-03-03T14:32:46.363Z,80.40
2018-03-03T14:35:14.650Z,79.70
2018-03-03T14:37:42.918Z,80.10
2018-03-03T14:40:11.210Z,81.00
2018-03-03T14:42:38.711Z,81.00
2018-03-03T14:45:06.234Z,81.50
2018-03-03T14:47:33.735Z,81.50
2018-03-03T14:50:01.264Z,81.50
2018-03-03T14:52:28.762Z,81.40
2018-03-03T14:54:56.263Z,80.80
2018-03-03T14:57:23.782Z,80.40
2018-03-03T14:59:51.283Z,81.20
2018-03-03T15:02:18.810Z,80.60
2018-03-03T15:04:46.310Z,81.30
2018-03-03T15:07:13.834Z,80.70
2018-03-03T15:09:42.098Z,82.00
2018-03-03T15:12:09.627Z,82.00
2018-03-03T15:14:37.132Z,81.70
2018-03-03T15:17:05.423Z,83.00
2018-03-03T15:19:32.927Z,83.00
2018-03-03T15:22:00.434Z,83.80
2018-03-03T15:24:28.723Z,84.00
2018-03-03T15:26:56.225Z,83.90
2018-03-03T15:29:23.751Z,84.20
2018-03-03T15:31:51.254Z,84.40
2018-03-03T15:34:18.773Z,84.30
2018-03-03T15:36:46.275Z,84.00
2018-03-03T15:39:13.808Z,84.10
2018-03-03T15:41:41.305Z,84.10
2018-03-03T15:44:09.570Z,85.20
2018-03-03T15:46:37.093Z,84.50
2018-03-03T15:49:04.590Z,84.20
2018-03-03T15:51:32.118Z,84.70
2018-03-03T15:53:59.616Z,85.20
2018-03-03T15:56:27.941Z,85.70
2018-03-03T15:58:55.450Z,85.70
2018-03-03T16:01:22.966Z,86.20
2018-03-03T16:03:50.462Z,86.40
2018-03-03T16:06:17.963Z,86.50
2018-03-03T16:08:45.481Z,86.90
2018-03-03T16:11:12.981Z,86.80
2018-03-03T16:13:40.498Z,86.80
2018-03-03T16:16:08.002Z,86.90
2018-03-03T16:18:35.522Z,87.10
2018-03-03T16:21:03.786Z,87.70
2018-03-03T16:23:31.310Z,87.60
2018-03-03T16:25:58.814Z,87.80
2018-03-03T16:28:27.089Z,88.50
2018-03-03T16:30:55.374Z,89.00
2018-03-03T16:33:23.646Z,89.10
2018-03-03T16:35:51.938Z,89.20
2018-03-03T16:38:19.431Z,89.20
2018-03-03T16:40:46.958Z,89.50
2018-03-03T16:43:14.459Z,90.00
2018-03-03T16:45:41.983Z,90.00
2018-03-03T16:48:09.482Z,90.20
2018-03-03T16:50:36.982Z,90.30
2018-03-03T16:53:05.275Z,91.00
2018-03-03T16:55:32.778Z,90.70
2018-03-03T16:58:00.299Z,90.90
2018-03-03T17:00:27.798Z,91.10
2018-03-03T17:02:55.356Z,91.30
2018-03-03T17:05:22.843Z,91.40
2018-03-03T17:07:51.130Z,91.70
2018-03-03T17:10:19.394Z,91.90
2018-03-03T17:12:47.661Z,92.00
2018-03-03T17:15:15.190Z,92.00
2018-03-03T17:17:42.687Z,92.00
2018-03-03T17:20:10.974Z,92.10
2018-03-03T17:22:39.238Z,92.20
2018-03-03T17:25:07.522Z,92.30
2018-03-03T17:27:35.777Z,92.30
2018-03-03T17:30:03.302Z,92.30
2018-03-03T17:32:30.799Z,92.30
2018-03-03T17:34:58.321Z,92.40
2018-03-03T17:37:25.817Z,92.40
2018-03-03T17:39:53.313Z,92.40
2018-03-03T17:42:20.834Z,92.80
2018-03-03T17:44:48.335Z,92.60
2018-03-03T17:47:15.858Z,92.70
2018-03-03T17:49:44.118Z,92.80
2018-03-03T17:52:11.652Z,92.80
2018-03-03T17:54:39.146Z,92.90
2018-03-03T17:57:06.671Z,92.90
2018-03-03T17:59:34.171Z,93.00
2018-03-03T18:02:02.437Z,93.10
2018-03-03T18:04:29.962Z,93.00
2018-03-03T18:06:57.466Z,93.20
2018-03-03T18:09:25.750Z,93.30
2018-03-03T18:11:59.442Z,93.30
2018-03-03T18:14:27.726Z,93.30
2018-03-03T18:16:55.998Z,93.50
2018-03-03T18:19:39.963Z,93.50
2018-03-03T18:22:07.463Z,93.50
2018-03-03T18:24:36.579Z,93.50
2018-03-03T18:27:04.079Z,93.50
2018-03-03T18:29:31.578Z,93.60
2018-03-03T18:31:59.108Z,93.60
2018-03-03T18:34:26.611Z,93.80
2018-03-03T18:36:54.134Z,93.80
2018-03-03T18:39:21.679Z,93.90
2018-03-03T18:41:49.944Z,94.10
2018-03-03T18:44:17.445Z,94.10
2018-03-03T18:46:44.970Z,94.10
2018-03-03T18:49:12.466Z,94.20
2018-03-03T18:51:39.991Z,94.30
2018-03-03T18:54:07.510Z,94.30
2018-03-03T18:56:35.778Z,94.50
2018-03-03T18:59:03.310Z,94.50
2018-03-03T19:01:30.811Z,94.60
2018-03-03T19:03:59.103Z,94.70
2018-03-03T19:06:26.602Z,94.70
2018-03-03T19:08:54.127Z,94.70
2018-03-03T19:11:21.630Z,94.80
2018-03-03T19:13:49.157Z,94.70
2018-03-03T19:16:16.663Z,94.70
2018-03-03T19:18:44.166Z,94.70
2018-03-03T19:21:11.695Z,94.70
2018-03-03T19:23:39.962Z,94.50
2018-03-03T19:26:07.482Z,94.50
2018-03-03T19:28:34.979Z,94.40
2018-03-03T19:31:02.503Z,94.40
2018-03-03T19:33:30.003Z,94.40
2018-03-03T19:35:58.271Z,94.20
2018-03-03T19:38:25.794Z,94.10
2018-03-03T19:40:53.286Z,94.20
2018-03-03T19:43:20.807Z,94.10
2018-03-03T19:45:48.302Z,94.10
2018-03-03T19:48:15.823Z,94.10
2018-03-03T19:50:43.325Z,94.00
2018-03-03T19:53:11.619Z,94.00
2018-03-03T19:55:39.885Z,94.00
2018-03-03T19:58:08.147Z,94.00
2018-03-03T20:00:35.671Z,94.00
2018-03-03T20:03:03.175Z,93.90
2018-03-03T20:05:31.467Z,93.80
2018-03-03T20:07:58.967Z,93.80
2018-03-03T20:10:26.486Z,93.90
2018-03-03T20:12:53.985Z,93.80
2018-03-03T20:15:21.508Z,93.80
2018-03-03T20:17:49.011Z,93.70
2018-03-03T20:20:16.505Z,93.60
2018-03-03T20:22:44.790Z,93.70
2018-03-03T20:25:13.055Z,93.70
2018-03-03T20:27:41.342Z,93.70
2018-03-03T20:30:09.606Z,93.70
2018-03-03T20:32:37.894Z,93.60
2018-03-03T20:35:06.160Z,93.50
2018-03-03T20:37:34.451Z,93.50
2018-03-03T20:40:01.955Z,93.40
2018-03-03T20:42:29.453Z,93.50
2018-03-03T20:44:57.742Z,93.50
2018-03-03T20:47:26.006Z,93.50
2018-03-03T20:49:54.294Z,93.40
2018-03-03T20:52:22.558Z,93.30
2018-03-03T20:54:50.854Z,93.30
2018-03-03T20:57:18.353Z,93.30
2018-03-03T20:59:45.883Z,93.30
2018-03-03T21:02:13.383Z,93.40
2018-03-03T21:04:40.878Z,93.40
2018-03-03T21:07:09.166Z,93.40
2018-03-03T21:09:36.666Z,93.40
2018-03-03T21:12:04.187Z,93.40
2018-03-03T21:14:31.691Z,93.40
2018-03-03T21:16:59.211Z,93.30
2018-03-03T21:19:26.717Z,93.30
2018-03-03T21:21:54.237Z,93.30
2018-03-03T21:24:21.740Z,93.30
2018-03-03T21:26:49.242Z,93.30
2018-03-03T21:29:16.762Z,93.40
2018-03-03T21:31:45.030Z,93.40
2018-03-03T21:34:12.554Z,93.40
2018-03-03T21:36:40.049Z,93.40
2018-03-03T21:39:07.571Z,93.40
2018-03-03T21:41:35.115Z,93.40
2018-03-03T21:44:02.638Z,93.30
2018-03-03T21:46:30.902Z,93.40
2018-03-03T21:48:58.408Z,93.40
2018-03-03T21:51:25.933Z,93.50
2018-03-03T21:53:54.198Z,93.60
2018-03-03T21:56:21.722Z,93.60
2018-03-03T21:58:49.219Z,93.70
2018-03-03T22:01:16.738Z,93.70
2018-03-03T22:03:44.235Z,93.90
2018-03-03T22:06:12.529Z,93.60
2018-03-03T22:08:40.794Z,94.00
2018-03-03T22:11:09.082Z,93.90
2018-03-03T22:13:37.352Z,94.00
2018-03-03T22:16:05.631Z,94.00
2018-03-03T22:18:33.914Z,93.90
2018-03-03T22:21:02.179Z,93.90
2018-03-03T22:23:30.471Z,93.90
2018-03-03T22:25:57.974Z,93.90
2018-03-03T22:28:25.500Z,94.00
2018-03-03T22:30:52.998Z,93.90
2018-03-03T22:33:20.523Z,93.90
2018-03-03T22:35:48.022Z,93.90
2018-03-03T22:38:16.300Z,93.80
2018-03-03T22:40:43.822Z,93.80
2018-03-03T22:43:11.317Z,93.90
2018-03-03T22:45:38.842Z,93.80
2018-03-03T22:48:06.339Z,93.80
2018-03-03T22:50:34.626Z,93.80
2018-03-03T22:53:02.128Z,93.80
2018-03-03T22:55:29.674Z,93.80
2018-03-03T22:57:57.174Z,93.80
2018-03-03T23:00:24.698Z,93.70
2018-03-03T23:02:52.202Z,93.60
2018-03-03T23:05:19.727Z,93.60
2018-03-03T23:07:47.246Z,93.70
2018-03-03T23:10:15.510Z,93.80
2018-03-03T23:12:43.035Z,93.70
2018-03-03T23:15:10.534Z,93.80
2018-03-03T23:17:38.823Z,93.80
2018-03-03T23:20:07.086Z,93.80
2018-03-03T23:22:35.379Z,93.90
2018-03-03T23:25:02.878Z,93.90
2018-03-03T23:27:30.374Z,93.90
2018-03-03T23:29:57.899Z,93.80
2018-03-03T23:32:25.396Z,93.80
2018-03-03T23:34:53.686Z,93.80
2018-03-03T23:37:21.958Z,94.10
2018-03-03T23:39:50.250Z,93.80
2018-03-03T23:42:17.758Z,93.80
2018-03-03T23:44:45.286Z,93.80
2018-03-03T23:47:12.786Z,93.80
2018-03-03T23:49:40.288Z,93.70
2018-03-03T23:52:07.818Z,93.80
2018-03-03T23:54:36.082Z,93.80
2018-03-03T23:57:03.602Z,93.80
2018-03-03T23:59:31.098Z,93.80
